createdAt,value
2023-04-23T00:00:49.174Z,64.70
2023-04-23T00:03:19.474Z,64.70
2023-04-23T00:05:47.614Z,65.00
2023-04-23T00:08:17.996Z,65.00
2023-04-23T00:10:45.963Z,64.90
2023-04-23T00:13:13.936Z,64.80
2023-04-23T00:15:41.685Z,64.70
2023-04-23T00:18:09.197Z,64.80
2023-04-23T00:20:36.932Z,64.90
2023-04-23T00:23:04.424Z,65.00
2023-04-23T00:25:32.183Z,64.80
2023-04-23T00:27:59.754Z,65.10
2023-04-23T00:30:27.340Z,65.60
2023-04-23T00:32:55.342Z,68.70
2023-04-23T00:35:23.376Z,69.70
2023-04-23T00:37:50.938Z,70.40
2023-04-23T00:40:18.618Z,72.10
2023-04-23T00:42:46.282Z,72.30
2023-04-23T00:45:13.974Z,73.20
2023-04-23T00:47:41.817Z,74.30
2023-04-23T00:50:09.819Z,74.10
2023-04-23T00:52:39.118Z,74.50
2023-04-23T00:55:08.455Z,75.00
2023-04-23T00:57:37.941Z,75.10
2023-04-23T01:00:07.445Z,76.70
2023-04-23T01:02:37.370Z,76.40
2023-04-23T01:05:07.671Z,75.70
2023-04-23T01:07:36.296Z,76.40
2023-04-23T01:10:05.238Z,77.10
2023-04-23T01:12:33.954Z,77.40
2023-04-23T01:15:02.135Z,77.60
2023-04-23T01:17:29.805Z,77.90
2023-04-23T01:19:57.417Z,77.80
2023-04-23T01:22:25.279Z,78.30
2023-04-23T01:24:53.175Z,78.20
2023-04-23T01:27:22.249Z,78.50
2023-04-23T01:29:49.948Z,78.80
2023-04-23T01:32:19.474Z,79.00
2023-04-23T01:34:48.150Z,79.20
2023-04-23T01:37:17.338Z,79.20
2023-04-23T01:39:44.981Z,79.50
2023-04-23T01:42:12.673Z,79.60
2023-04-23T01:44:40.803Z,80.20
2023-04-23T01:47:08.514Z,80.00
2023-04-23T01:49:36.325Z,80.70
2023-04-23T01:52:04.140Z,79.70
2023-04-23T01:54:31.665Z,79.90
2023-04-23T01:56:59.256Z,79.80
2023-04-23T01:59:27.198Z,79.80
2023-04-23T02:01:54.765Z,79.90
2023-04-23T02:04:23.037Z,80.00
2023-04-23T02:06:52.494Z,80.20
2023-04-23T02:09:20.137Z,80.50
2023-04-23T02:11:47.842Z,80.20
2023-04-23T02:14:17.365Z,80.60
2023-04-23T02:16:45.470Z,80.70
2023-04-23T02:19:15.351Z,80.80
2023-04-23T02:21:43.520Z,81.00
2023-04-23T02:24:11.700Z,81.20
2023-04-23T02:26:39.233Z,81.50
2023-04-23T02:29:06.742Z,81.30
2023-04-23T02:31:34.353Z,81.30
2023-04-23T02:34:01.843Z,81.30
2023-04-23T02:36:31.054Z,81.20
2023-04-23T02:38:58.553Z,81.30
2023-04-23T02:41:26.073Z,81.40
2023-04-23T02:43:53.572Z,81.50
2023-04-23T02:46:21.393Z,81.20
2023-04-23T02:48:49.054Z,80.40
2023-04-23T02:51:16.678Z,80.10
2023-04-23T02:53:44.176Z,79.90
2023-04-23T02:56:11.676Z,79.80
2023-04-23T02:58:39.265Z,80.50
2023-04-23T03:01:07.158Z,80.10
2023-04-23T03:03:34.957Z,79.90
2023-04-23T03:06:06.598Z,80.10
2023-04-23T03:08:34.314Z,80.00
2023-04-23T03:11:01.806Z,80.00
2023-04-23T03:13:29.543Z,80.00
2023-04-23T03:15:57.919Z,80.00
2023-04-23T03:18:27.014Z,79.80
2023-04-23T03:20:55.648Z,79.60
2023-04-23T03:23:24.642Z,79.50
2023-04-23T03:25:52.201Z,79.20
2023-04-23T03:28:19.996Z,78.40
2023-04-23T03:30:47.708Z,78.10
2023-04-23T03:33:15.314Z,77.80
2023-04-23T03:35:42.983Z,77.60
2023-04-23T03:38:15.591Z,77.60
2023-04-23T03:40:43.318Z,77.90
2023-04-23T03:43:12.219Z,78.10
2023-04-23T03:46:02.709Z,78.10
2023-04-23T03:48:33.175Z,78.40
2023-04-23T03:51:05.587Z,78.40
2023-04-23T03:53:58.885Z,79.10
2023-04-23T03:56:29.000Z,77.70
2023-04-23T03:59:28.908Z,77.50
2023-04-23T04:01:59.846Z,77.70
2023-04-23T04:04:28.320Z,77.80
2023-04-23T04:06:57.714Z,77.90
2023-04-23T04:09:29.431Z,78.10
2023-04-23T04:12:01.856Z,78.10
2023-04-23T04:14:29.631Z,77.70
2023-04-23T04:16:57.213Z,77.70
2023-04-23T04:19:24.941Z,77.80
2023-04-23T04:21:52.433Z,77.90
2023-04-23T04:24:19.916Z,78.00
2023-04-23T04:26:47.632Z,78.10
2023-04-23T04:29:15.178Z,77.90
2023-04-23T04:31:42.794Z,77.80
2023-04-23T04:34:10.491Z,77.80
2023-04-23T04:36:37.992Z,77.70
2023-04-23T04:39:05.564Z,77.80
2023-04-23T04:41:33.454Z,78.00
2023-04-23T04:44:00.944Z,77.70
2023-04-23T04:46:29.435Z,77.50
2023-04-23T04:48:57.035Z,77.60
2023-04-23T04:51:24.554Z,77.40
2023-04-23T04:53:52.080Z,77.40
2023-04-23T04:56:19.543Z,77.10
2023-04-23T04:58:47.186Z,76.90
2023-04-23T05:01:15.887Z,76.90
2023-04-23T05:03:43.723Z,76.90
2023-04-23T05:06:11.357Z,76.90
2023-04-23T05:08:38.831Z,76.70
2023-04-23T05:11:06.439Z,76.70
2023-04-23T05:13:33.956Z,77.30
2023-04-23T05:16:01.561Z,77.90
2023-04-23T05:18:29.564Z,78.30
2023-04-23T05:20:57.082Z,78.50
2023-04-23T05:23:24.652Z,79.20
2023-04-23T05:25:55.770Z,79.20
2023-04-23T05:28:23.280Z,79.30
2023-04-23T05:30:51.832Z,79.40
2023-04-23T05:33:19.389Z,79.30
2023-04-23T05:35:46.856Z,79.50
2023-04-23T05:38:14.376Z,79.50
2023-04-23T05:40:41.952Z,79.50
2023-04-23T05:43:09.655Z,79.20
2023-04-23T05:45:37.223Z,79.00
2023-04-23T05:48:04.819Z,79.10
2023-04-23T05:53:35.899Z,78.80
2023-04-23T05:56:03.749Z,78.40
2023-04-23T05:58:31.226Z,78.20
2023-04-23T06:00:58.772Z,78.30
2023-04-23T06:03:26.941Z,77.90
2023-04-23T06:05:54.827Z,77.70
2023-04-23T06:08:24.542Z,77.70
2023-04-23T06:10:52.701Z,77.50
2023-04-23T06:13:20.744Z,77.00
2023-04-23T06:15:48.249Z,76.70
2023-04-23T06:18:15.856Z,76.50
2023-04-23T06:20:43.473Z,76.10
2023-04-23T06:23:12.716Z,76.30
2023-04-23T06:25:40.493Z,76.30
2023-04-23T06:28:07.968Z,76.30
2023-04-23T06:30:44.129Z,76.30
2023-04-23T06:33:13.127Z,76.10
2023-04-23T06:35:40.679Z,76.00
2023-04-23T06:38:08.154Z,76.10
2023-04-23T06:40:35.776Z,76.10
2023-04-23T06:43:05.267Z,75.70
2023-04-23T06:45:56.247Z,75.30
2023-04-23T06:48:23.734Z,75.20
2023-04-23T06:50:51.361Z,75.40
2023-04-23T06:53:18.920Z,75.50
2023-04-23T06:55:46.428Z,75.00
2023-04-23T06:58:14.887Z,75.20
2023-04-23T07:00:43.515Z,75.20
2023-04-23T07:03:11.876Z,74.30
2023-04-23T07:05:39.397Z,73.70
2023-04-23T07:08:06.953Z,74.20
2023-04-23T07:10:34.456Z,74.20
2023-04-23T07:13:02.096Z,74.40
2023-04-23T07:15:29.696Z,74.80
2023-04-23T07:17:57.272Z,74.40
2023-04-23T07:20:24.857Z,74.10
2023-04-23T07:22:52.810Z,74.00
2023-04-23T07:25:22.427Z,74.40
2023-04-23T07:27:49.911Z,74.40
2023-04-23T07:30:17.735Z,74.60
2023-04-23T07:32:45.256Z,74.50
2023-04-23T07:35:13.030Z,74.70
2023-04-23T07:37:40.681Z,75.20
2023-04-23T07:40:09.356Z,75.10
2023-04-23T07:42:36.845Z,74.80
2023-04-23T07:45:05.843Z,74.00
2023-04-23T07:47:33.507Z,73.80
2023-04-23T07:50:01.129Z,73.80
2023-04-23T07:52:28.629Z,74.00
2023-04-23T07:54:56.254Z,73.70
2023-04-23T07:57:24.141Z,72.30
2023-04-23T07:59:51.798Z,71.00
2023-04-23T08:02:23.586Z,70.40
2023-04-23T08:04:51.378Z,69.70
2023-04-23T08:07:19.337Z,69.10
2023-04-23T08:09:47.386Z,68.60
2023-04-23T08:12:17.135Z,68.10
2023-04-23T08:14:47.216Z,68.40
2023-04-23T08:17:17.388Z,68.60
2023-04-23T08:19:44.887Z,67.50
2023-04-23T08:22:13.461Z,68.30
2023-04-23T08:24:41.084Z,68.30
2023-04-23T08:27:08.642Z,67.40
2023-04-23T08:29:36.285Z,67.80
2023-04-23T08:32:03.996Z,68.90
2023-04-23T08:34:31.489Z,69.40
2023-04-23T08:36:58.978Z,69.40
2023-04-23T08:39:27.938Z,69.00
2023-04-23T08:41:56.177Z,69.00
2023-04-23T08:44:26.187Z,69.00
2023-04-23T08:46:54.778Z,67.40
2023-04-23T08:49:22.297Z,67.90
2023-04-23T08:51:53.310Z,66.60
2023-04-23T08:54:28.351Z,65.50
2023-04-23T08:57:00.774Z,64.00
2023-04-23T08:59:34.173Z,64.20
2023-04-23T09:02:07.951Z,64.00
2023-04-23T09:04:36.977Z,65.00
2023-04-23T09:07:07.963Z,64.60
2023-04-23T09:09:36.647Z,62.50
2023-04-23T09:12:06.881Z,62.90
2023-04-23T09:14:35.628Z,62.90
2023-04-23T09:17:03.897Z,63.20
2023-04-23T09:19:31.635Z,63.30
2023-04-23T09:22:01.999Z,63.30
2023-04-23T09:24:30.112Z,62.70
2023-04-23T09:26:58.758Z,62.40
2023-04-23T09:29:26.800Z,62.40
2023-04-23T09:31:56.700Z,61.80
2023-04-23T09:34:25.456Z,61.70
2023-04-23T09:36:53.787Z,61.60
2023-04-23T09:39:24.631Z,61.10
2023-04-23T09:41:53.760Z,60.40
2023-04-23T09:44:23.146Z,61.50
2023-04-23T09:46:51.077Z,61.40
2023-04-23T09:49:18.863Z,61.20
2023-04-23T09:51:48.800Z,60.70
2023-04-23T09:54:22.668Z,61.60
2023-04-23T09:57:04.034Z,61.70
2023-04-23T09:59:47.014Z,61.40
2023-04-23T10:02:18.794Z,61.40
2023-04-23T10:04:52.328Z,60.20
2023-04-23T10:07:23.017Z,60.60
2023-04-23T10:09:50.498Z,61.30
2023-04-23T10:12:41.111Z,61.40
2023-04-23T10:15:09.583Z,61.00
2023-04-23T10:17:38.059Z,60.20
2023-04-23T10:20:10.248Z,60.80
2023-04-23T10:22:39.375Z,60.80
2023-04-23T10:25:11.761Z,60.80
2023-04-23T10:27:52.697Z,60.80
2023-04-23T10:30:22.433Z,59.90
2023-04-23T10:32:51.175Z,60.30
2023-04-23T10:35:18.956Z,60.60
2023-04-23T10:37:48.405Z,60.30
2023-04-23T10:40:27.742Z,59.10
2023-04-23T10:42:55.897Z,59.40
2023-04-23T10:45:25.186Z,59.00
2023-04-23T10:47:55.926Z,59.60
2023-04-23T10:50:29.600Z,59.50
2023-04-23T10:52:58.113Z,59.30
2023-04-23T10:55:28.741Z,57.60
2023-04-23T10:58:07.512Z,58.40
2023-04-23T11:00:46.308Z,57.40
2023-04-23T11:03:44.122Z,57.50
2023-04-23T11:06:43.251Z,57.80
2023-04-23T11:09:54.063Z,58.20
2023-04-23T11:12:24.182Z,55.70
2023-04-23T11:14:54.737Z,57.40
2023-04-23T11:17:47.326Z,56.40
2023-04-23T11:20:20.760Z,55.10
2023-04-23T11:22:50.550Z,55.40
2023-04-23T11:25:27.672Z,55.90
2023-04-23T11:28:00.534Z,55.00
2023-04-23T11:30:30.053Z,55.20
2023-04-23T11:32:59.980Z,54.30
2023-04-23T11:35:29.417Z,52.40
2023-04-23T11:37:57.164Z,50.90
2023-04-23T11:40:25.980Z,50.30
2023-04-23T11:42:57.443Z,50.30
2023-04-23T11:45:28.278Z,49.50
2023-04-23T11:47:58.280Z,47.20
2023-04-23T11:50:33.092Z,47.70
2023-04-23T11:53:11.407Z,48.30
2023-04-23T11:55:43.697Z,45.90
2023-04-23T11:58:11.364Z,45.40
2023-04-23T12:00:38.900Z,47.20
2023-04-23T12:03:06.907Z,45.70
2023-04-23T12:05:39.286Z,45.80
2023-04-23T12:08:21.011Z,45.40
2023-04-23T12:11:00.761Z,44.70
2023-04-23T12:13:32.055Z,45.00
2023-04-23T12:16:02.612Z,46.00
2023-04-23T12:18:32.523Z,45.70
2023-04-23T12:21:06.910Z,45.40
2023-04-23T12:23:36.189Z,43.20
2023-04-23T12:26:04.532Z,45.10
2023-04-23T12:28:32.076Z,45.10
2023-04-23T12:31:02.029Z,45.10
2023-04-23T12:33:31.061Z,44.30
2023-04-23T12:35:59.807Z,44.20
2023-04-23T12:38:29.880Z,44.60
2023-04-23T12:41:01.841Z,44.40
2023-04-23T12:43:29.351Z,43.30
2023-04-23T12:45:56.935Z,43.30
2023-04-23T12:48:24.502Z,43.10
2023-04-23T12:50:51.995Z,43.50
2023-04-23T12:53:19.540Z,43.60
2023-04-23T12:55:48.345Z,42.40
2023-04-23T12:58:15.891Z,42.00
2023-04-23T13:00:43.414Z,42.40
2023-04-23T13:03:12.697Z,43.00
2023-04-23T13:05:40.289Z,42.10
2023-04-23T13:08:07.825Z,42.60
2023-04-23T13:10:35.367Z,43.00
2023-04-23T13:13:02.857Z,42.90
2023-04-23T13:15:30.444Z,43.10
2023-04-23T13:17:57.937Z,43.30
2023-04-23T13:20:26.139Z,43.50
2023-04-23T13:22:53.611Z,44.70
2023-04-23T13:25:21.106Z,44.30
2023-04-23T13:27:48.642Z,44.60
2023-04-23T13:30:16.236Z,43.50
2023-04-23T13:32:43.736Z,42.40
2023-04-23T13:35:11.823Z,41.90
2023-04-23T13:37:41.057Z,41.70
2023-04-23T13:40:09.118Z,40.50
2023-04-23T13:42:36.571Z,41.40
2023-04-23T13:45:06.123Z,38.50
2023-04-23T13:47:34.801Z,38.80
2023-04-23T13:50:06.822Z,38.00
2023-04-23T13:52:37.193Z,36.30
2023-04-23T13:55:07.437Z,33.20
2023-04-23T13:57:34.938Z,34.20
2023-04-23T14:00:02.534Z,35.20
2023-04-23T14:02:32.004Z,34.80
2023-04-23T14:04:59.640Z,34.50
2023-04-23T14:07:27.111Z,33.00
2023-04-23T14:09:54.604Z,31.90
2023-04-23T14:12:23.893Z,32.40
2023-04-23T14:14:51.442Z,31.20
2023-04-23T14:17:18.942Z,31.80
2023-04-23T14:19:47.193Z,31.60
2023-04-23T14:22:14.916Z,32.60
2023-04-23T14:25:02.984Z,33.90
2023-04-23T14:27:39.553Z,36.30
2023-04-23T14:30:16.946Z,37.10
2023-04-23T14:32:47.570Z,37.80
2023-04-23T14:35:17.353Z,39.00
2023-04-23T14:37:45.612Z,38.90
2023-04-23T14:40:15.769Z,38.90
2023-04-23T14:42:45.473Z,38.30
2023-04-23T14:45:14.023Z,37.70
2023-04-23T14:47:47.763Z,37.50
2023-04-23T14:50:16.624Z,36.30
2023-04-23T14:52:48.888Z,37.00
2023-04-23T14:55:19.334Z,38.70
2023-04-23T14:57:46.879Z,39.20
2023-04-23T15:00:15.544Z,39.80
2023-04-23T15:02:46.550Z,38.90
2023-04-23T15:05:16.474Z,38.60
2023-04-23T15:07:44.084Z,39.10
2023-04-23T15:10:12.149Z,39.90
2023-04-23T15:13:42.290Z,40.20
2023-04-23T15:16:46.910Z,34.90
2023-04-23T15:19:17.745Z,37.30
2023-04-23T15:21:46.616Z,33.50
2023-04-23T15:24:15.621Z,32.80
2023-04-23T15:26:45.665Z,33.40
2023-04-23T15:29:13.580Z,33.90
2023-04-23T15:31:41.974Z,34.10
2023-04-23T15:34:11.433Z,34.20
2023-04-23T15:36:39.076Z,34.20
2023-04-23T15:39:07.525Z,32.70
2023-04-23T15:41:39.553Z,34.60
2023-04-23T15:44:14.056Z,33.90
2023-04-23T15:46:41.558Z,33.90
2023-04-23T15:49:09.123Z,33.10
2023-04-23T15:51:37.473Z,33.20
2023-04-23T15:54:08.036Z,32.60
2023-04-23T15:56:36.564Z,32.90
2023-04-23T15:59:04.137Z,33.50
2023-04-23T16:01:31.770Z,34.50
2023-04-23T16:04:09.289Z,34.20
2023-04-23T16:06:38.206Z,34.30
2023-04-23T16:09:08.329Z,34.70
2023-04-23T16:11:37.452Z,34.60
2023-04-23T16:14:06.877Z,34.80
2023-04-23T16:16:34.528Z,34.90
2023-04-23T16:19:02.858Z,37.10
2023-04-23T16:21:31.963Z,38.50
2023-04-23T16:23:59.578Z,39.40
2023-04-23T16:26:28.918Z,40.40
2023-04-23T16:29:16.474Z,42.40
2023-04-23T16:31:44.991Z,43.40
2023-04-23T16:34:12.560Z,45.90
2023-04-23T16:36:40.158Z,45.40
2023-04-23T16:39:07.626Z,47.40
2023-04-23T16:41:35.132Z,52.30
2023-04-23T16:44:02.668Z,51.10
2023-04-23T16:46:31.941Z,54.70
2023-04-23T16:48:59.816Z,59.90
2023-04-23T16:51:28.353Z,57.70
2023-04-23T16:53:57.000Z,60.50
2023-04-23T16:56:24.701Z,59.70
2023-04-23T16:58:52.346Z,62.10
2023-04-23T17:01:19.941Z,60.80
2023-04-23T17:03:47.592Z,61.70
2023-04-23T17:06:24.553Z,59.30
2023-04-23T17:08:52.134Z,65.60
2023-04-23T17:11:19.786Z,65.20
2023-04-23T17:13:47.525Z,64.80
2023-04-23T17:16:15.201Z,68.30
2023-04-23T17:18:42.741Z,67.70
2023-04-23T17:21:13.276Z,66.10
2023-04-23T17:23:40.819Z,70.60
2023-04-23T17:26:08.333Z,70.40
2023-04-23T17:28:35.900Z,69.70
2023-04-23T17:31:03.850Z,70.60
2023-04-23T17:33:31.566Z,69.90
2023-04-23T17:35:59.328Z,70.00
2023-04-23T17:38:28.006Z,69.70
2023-04-23T17:40:55.816Z,70.90
2023-04-23T17:43:23.391Z,70.00
2023-04-23T17:45:51.173Z,70.20
2023-04-23T17:48:20.762Z,69.70
2023-04-23T17:50:50.685Z,69.70
2023-04-23T17:53:18.469Z,68.70
2023-04-23T17:55:46.297Z,67.50
2023-04-23T17:58:13.806Z,67.70
2023-04-23T18:00:42.834Z,67.80
2023-04-23T18:03:14.475Z,69.50
2023-04-23T18:05:42.551Z,69.30
2023-04-23T18:08:10.144Z,69.90
2023-04-23T18:10:37.847Z,69.50
2023-04-23T18:13:08.920Z,69.20
2023-04-23T18:15:36.621Z,68.30
2023-04-23T18:18:04.454Z,67.90
2023-04-23T18:20:34.979Z,67.20
2023-04-23T18:23:02.490Z,66.90
2023-04-23T18:25:30.310Z,66.50
2023-04-23T18:27:57.817Z,66.90
2023-04-23T18:30:25.706Z,67.50
2023-04-23T18:33:08.743Z,67.10
2023-04-23T18:35:36.355Z,67.00
2023-04-23T18:38:11.427Z,67.50
2023-04-23T18:40:38.969Z,67.70
2023-04-23T18:43:06.508Z,67.70
2023-04-23T18:45:34.356Z,68.60
2023-04-23T18:48:33.701Z,68.20
2023-04-23T18:51:08.556Z,69.30
2023-04-23T18:53:38.788Z,68.50
2023-04-23T18:56:06.388Z,67.90
2023-04-23T18:58:33.874Z,67.10
2023-04-23T19:01:01.518Z,67.00
2023-04-23T19:03:29.634Z,65.90
2023-04-23T19:05:57.854Z,65.60
2023-04-23T19:08:28.661Z,64.60
2023-04-23T19:10:57.165Z,64.30
2023-04-23T19:13:25.152Z,62.90
2023-04-23T19:15:52.742Z,62.00
2023-04-23T19:18:20.490Z,60.70
2023-04-23T19:20:48.724Z,61.00
2023-04-23T19:23:16.209Z,59.80
2023-04-23T19:25:43.829Z,59.90
2023-04-23T19:28:11.353Z,59.60
2023-04-23T19:30:38.935Z,59.80
2023-04-23T19:33:06.558Z,61.10
2023-04-23T19:35:34.088Z,64.00
2023-04-23T19:38:01.632Z,65.30
2023-04-23T19:40:29.154Z,64.30
2023-04-23T19:42:56.631Z,64.80
2023-04-23T19:45:24.631Z,64.30
2023-04-23T19:47:52.561Z,64.10
2023-04-23T19:50:20.585Z,65.20
2023-04-23T19:52:48.317Z,65.20
2023-04-23T19:55:18.134Z,66.20
2023-04-23T19:57:46.059Z,65.00
2023-04-23T20:00:14.346Z,65.20
2023-04-23T20:02:42.127Z,65.10
2023-04-23T20:05:12.805Z,64.70
2023-04-23T20:07:40.388Z,64.90
2023-04-23T20:10:08.526Z,65.10
2023-04-23T20:12:36.140Z,65.20
2023-04-23T20:15:13.174Z,65.30
2023-04-23T20:17:40.777Z,65.40
2023-04-23T20:20:10.907Z,65.40
2023-04-23T20:22:38.646Z,65.70
2023-04-23T20:25:07.084Z,65.50
2023-04-23T20:27:34.782Z,65.60
2023-04-23T20:30:04.683Z,65.00
2023-04-23T20:32:32.185Z,64.30
2023-04-23T20:35:00.160Z,64.00
2023-04-23T20:37:28.400Z,63.60
2023-04-23T20:39:55.958Z,63.40
2023-04-23T20:42:25.439Z,63.10
2023-04-23T20:44:52.923Z,63.10
2023-04-23T20:47:20.617Z,63.10
2023-04-23T20:49:48.172Z,63.10
2023-04-23T20:52:15.735Z,62.80
2023-04-23T20:54:45.089Z,62.40
2023-04-23T20:57:12.715Z,62.50
2023-04-23T20:59:41.696Z,62.00
2023-04-23T21:02:12.862Z,61.70
2023-04-23T21:04:41.171Z,61.50
2023-04-23T21:07:08.874Z,61.60
2023-04-23T21:09:36.409Z,61.40
2023-04-23T21:12:04.015Z,61.30
2023-04-23T21:14:33.910Z,61.60
2023-04-23T21:17:01.467Z,62.20
2023-04-23T21:19:28.996Z,62.20
2023-04-23T21:21:56.494Z,62.00
2023-04-23T21:24:23.995Z,61.90
2023-04-23T21:26:51.614Z,61.40
2023-04-23T21:29:19.149Z,61.30
2023-04-23T21:31:48.497Z,61.60
2023-04-23T21:34:16.161Z,61.30
2023-04-23T21:36:46.643Z,61.10
2023-04-23T21:39:14.173Z,61.20
2023-04-23T21:41:42.097Z,61.10
2023-04-23T21:44:09.577Z,61.60
2023-04-23T21:46:37.122Z,61.30
2023-04-23T21:49:04.912Z,61.80
2023-04-23T21:51:36.714Z,62.70
2023-04-23T21:54:05.735Z,63.20
2023-04-23T21:56:34.048Z,63.70
2023-04-23T21:59:02.264Z,64.30
2023-04-23T22:01:30.030Z,64.60
2023-04-23T22:03:58.801Z,64.80
2023-04-23T22:06:27.584Z,65.10
2023-04-23T22:08:56.687Z,65.80
2023-04-23T22:11:24.268Z,66.00
2023-04-23T22:13:51.744Z,66.10
2023-04-23T22:16:28.140Z,66.40
2023-04-23T22:19:00.359Z,66.70
2023-04-23T22:21:28.218Z,67.40
2023-04-23T22:23:55.988Z,67.10
2023-04-23T22:26:23.604Z,67.60
2023-04-23T22:28:51.082Z,67.70
2023-04-23T22:31:18.679Z,68.30
2023-04-23T22:33:46.335Z,68.70
2023-04-23T22:36:14.121Z,68.20
2023-04-23T22:38:41.949Z,68.90
2023-04-23T22:41:09.446Z,69.20
2023-04-23T22:43:36.913Z,69.40
2023-04-23T22:46:04.630Z,69.50
2023-04-23T22:48:32.218Z,70.00
2023-04-23T22:50:59.712Z,70.80
2023-04-23T22:53:27.195Z,70.50
2023-04-23T22:55:54.867Z,70.80
2023-04-23T22:58:22.375Z,71.10
2023-04-23T23:00:50.118Z,71.20
2023-04-23T23:03:17.688Z,71.10
2023-04-23T23:05:45.226Z,71.20
2023-04-23T23:08:12.793Z,71.20
2023-04-23T23:10:40.365Z,71.20
2023-04-23T23:13:07.836Z,71.10
2023-04-23T23:15:35.373Z,71.80
2023-04-23T23:18:02.923Z,71.50
2023-04-23T23:20:30.820Z,71.50
2023-04-23T23:22:58.369Z,71.40
2023-04-23T23:25:25.913Z,72.00
2023-04-23T23:27:53.404Z,72.50
2023-04-23T23:30:21.011Z,72.50
2023-04-23T23:32:48.686Z,72.60
2023-04-23T23:35:16.282Z,72.60
2023-04-23T23:37:43.772Z,72.90
2023-04-23T23:40:11.732Z,73.00
2023-04-23T23:42:39.279Z,72.20
2023-04-23T23:45:07.642Z,72.00
2023-04-23T23:47:35.196Z,71.90
2023-04-23T23:50:03.307Z,71.80
2023-04-23T23:52:30.900Z,71.60
2023-04-23T23:54:58.404Z,71.40
2023-04-23T23:57:25.996Z,71.30
2023-04-23T23:59:53.504Z,71.00
